Time;durP1;ratioP1;P1;durP2;ratioP2;P2;SDS_P1;SDS_P2;PMS_P1;PMS_P2;Temp;Humidity;BMP_temperature;BMP_pressure;BME280_temperature;BME280_humidity;BME280_pressure;Samples;Min_cycle;Max_cycle;Signal;HPM_P1;HPM_P2
2021/05/09 00:00:46;;;;;;;4.53;4.13;;;11.80;1.00;;;;;;5061900;28;20557;-75
2021/05/09 00:03:13;;;;;;;4.63;4.33;;;11.80;1.00;;;;;;5066801;28;20461;-76
2021/05/09 00:05:40;;;;;;;5.67;4.57;;;11.80;1.00;;;;;;5054430;28;20557;-75
2021/05/09 00:08:06;;;;;;;4.70;4.30;;;11.70;1.00;;;;;;5061969;28;20404;-75
2021/05/09 00:10:32;;;;;;;4.87;4.23;;;11.80;1.00;;;;;;5068371;28;21245;-75
2021/05/09 00:12:58;;;;;;;4.57;4.28;;;11.70;1.00;;;;;;5069880;28;20451;-74
2021/05/09 00:15:26;;;;;;;4.80;4.40;;;11.80;1.00;;;;;;5060276;28;20731;-73
2021/05/09 00:17:53;;;;;;;4.87;4.47;;;11.80;1.00;;;;;;5061837;28;20714;-74
2021/05/09 00:20:21;;;;;;;4.97;4.43;;;11.80;1.00;;;;;;5067309;28;20466;-74
2021/05/09 00:22:47;;;;;;;4.90;4.50;;;11.80;1.00;;;;;;5067013;28;21258;-75
2021/05/09 00:25:14;;;;;;;5.80;4.60;;;11.90;1.00;;;;;;5067652;28;20213;-75
2021/05/09 00:27:40;;;;;;;4.97;4.53;;;11.80;1.00;;;;;;5040773;28;20440;-75
2021/05/09 00:30:09;;;;;;;5.00;4.60;;;11.90;1.00;;;;;;5066167;28;20498;-74
2021/05/09 00:32:35;;;;;;;6.40;4.10;;;11.90;1.00;;;;;;5062442;28;20459;-75
2021/05/09 00:35:03;;;;;;;4.73;4.17;;;11.90;1.00;;;;;;5051635;28;20439;-74
2021/05/09 00:37:29;;;;;;;5.40;4.87;;;11.90;1.00;;;;;;5044985;28;21283;-75
2021/05/09 00:39:55;;;;;;;4.60;4.20;;;11.90;1.00;;;;;;5049701;28;20471;-75
2021/05/09 00:42:22;;;;;;;4.63;4.23;;;11.90;1.00;;;;;;5063425;28;20968;-75
2021/05/09 00:44:48;;;;;;;5.50;4.90;;;11.90;1.00;;;;;;5056710;28;20464;-74
2021/05/09 00:47:15;;;;;;;4.87;4.47;;;12.00;1.00;;;;;;5055633;28;20518;-75
2021/05/09 00:49:42;;;;;;;5.83;4.90;;;12.00;1.00;;;;;;5057977;28;20521;-76
2021/05/09 00:52:10;;;;;;;5.53;5.10;;;12.00;1.00;;;;;;5040874;28;24331;-76
2021/05/09 00:54:41;;;;;;;5.13;4.33;;;12.00;1.00;;;;;;5043994;28;20467;-75
2021/05/09 00:57:09;;;;;;;5.00;4.60;;;12.10;1.00;;;;;;5042294;28;20701;-78
2021/05/09 00:59:37;;;;;;;5.90;4.40;;;12.10;1.00;;;;;;5042060;28;20463;-75
2021/05/09 01:02:03;;;;;;;5.40;5.00;;;12.10;1.00;;;;;;5040722;28;20474;-76
2021/05/09 01:04:30;;;;;;;4.87;4.43;;;12.10;1.00;;;;;;5049467;28;20449;-76
2021/05/09 01:06:56;;;;;;;4.50;4.17;;;12.10;1.00;;;;;;5048941;28;20991;-75
2021/05/09 01:09:24;;;;;;;5.37;4.43;;;12.10;1.00;;;;;;5044667;28;20467;-74
2021/05/09 01:11:50;;;;;;;4.80;4.37;;;12.10;1.00;;;;;;5050497;28;20451;-75
2021/05/09 01:14:16;;;;;;;5.20;4.80;;;12.20;1.00;;;;;;5041348;28;20457;-76
2021/05/09 01:16:43;;;;;;;5.10;4.60;;;12.20;1.00;;;;;;5051521;28;21335;-76
2021/05/09 01:19:09;;;;;;;5.43;5.03;;;12.20;1.00;;;;;;5049970;28;20460;-76
2021/05/09 01:21:36;;;;;;;4.80;4.40;;;12.20;1.00;;;;;;5054680;28;20457;-75
2021/05/09 01:24:03;;;;;;;5.70;5.10;;;12.30;1.00;;;;;;5047707;28;20245;-74
2021/05/09 01:26:29;;;;;;;5.90;4.67;;;12.20;1.00;;;;;;5049412;28;20451;-77
2021/05/09 01:28:56;;;;;;;5.07;4.60;;;12.20;1.00;;;;;;5047897;28;20450;-76
2021/05/09 01:31:22;;;;;;;4.63;4.33;;;12.10;1.00;;;;;;5060411;28;20444;-75
2021/05/09 01:33:48;;;;;;;5.50;5.00;;;12.10;1.00;;;;;;5060979;28;20491;-75
2021/05/09 01:36:15;;;;;;;5.47;5.07;;;12.10;1.00;;;;;;5054332;28;21000;-76
2021/05/09 01:38:42;;;;;;;4.83;4.43;;;12.00;1.00;;;;;;5047398;28;20475;-76
2021/05/09 01:41:08;;;;;;;5.32;4.82;;;12.10;1.00;;;;;;5050148;28;20472;-75
2021/05/09 01:43:35;;;;;;;4.53;4.13;;;12.10;1.00;;;;;;5052616;28;20324;-75
2021/05/09 01:46:01;;;;;;;5.67;5.20;;;12.10;1.00;;;;;;5050335;28;20465;-76
2021/05/09 01:48:27;;;;;;;5.33;4.83;;;12.00;1.00;;;;;;5056470;28;20504;-76
2021/05/09 01:50:54;;;;;;;4.93;4.50;;;12.00;1.00;;;;;;5049551;28;20451;-75
2021/05/09 01:53:20;;;;;;;5.43;4.90;;;12.00;1.00;;;;;;5059118;28;20463;-76
2021/05/09 01:55:47;;;;;;;5.33;4.93;;;12.00;1.00;;;;;;5051079;28;20458;-76
2021/05/09 01:58:13;;;;;;;5.70;5.30;;;12.00;1.00;;;;;;5058629;28;20537;-75
2021/05/09 02:03:14;;;;;;;4.93;4.53;;;12.00;1.00;;;;;;5092349;28;20441;-73
2021/05/09 02:05:40;;;;;;;6.07;5.13;;;12.00;1.00;;;;;;5092352;27;20418;-75
2021/05/09 02:08:06;;;;;;;4.87;4.47;;;12.00;1.00;;;;;;5087918;27;20453;-73
2021/05/09 02:10:32;;;;;;;5.40;4.90;;;12.00;1.00;;;;;;5088005;27;20442;-76
2021/05/09 02:12:59;;;;;;;4.83;4.43;;;12.00;1.00;;;;;;5089778;27;20442;-74
2021/05/09 02:15:25;;;;;;;5.07;4.57;;;12.00;1.00;;;;;;5082812;27;21028;-72
2021/05/09 02:17:51;;;;;;;5.37;4.87;;;12.00;1.00;;;;;;5082735;27;21485;-73
2021/05/09 02:20:18;;;;;;;4.90;4.50;;;12.00;1.00;;;;;;5084439;27;20431;-73
2021/05/09 02:22:44;;;;;;;5.00;4.60;;;12.00;1.00;;;;;;5083868;27;20449;-74
2021/05/09 02:25:10;;;;;;;4.87;4.47;;;12.00;1.00;;;;;;5083420;27;20530;-74
2021/05/09 02:27:37;;;;;;;5.47;4.97;;;11.90;1.00;;;;;;5081639;27;20453;-73
2021/05/09 02:30:05;;;;;;;4.47;4.17;;;11.90;1.00;;;;;;5088677;27;20922;-72
2021/05/09 02:32:32;;;;;;;5.80;4.77;;;11.90;1.00;;;;;;5083408;27;20878;-74
2021/05/09 02:34:58;;;;;;;5.10;4.60;;;12.00;1.00;;;;;;5084863;27;20458;-74
2021/05/09 02:37:24;;;;;;;4.73;4.33;;;11.90;1.00;;;;;;5076191;27;20458;-74
2021/05/09 02:39:50;;;;;;;7.13;5.00;;;11.90;1.00;;;;;;5064308;28;20431;-74
2021/05/09 02:42:17;;;;;;;5.30;4.90;;;11.90;1.00;;;;;;5083804;27;20533;-73
2021/05/09 02:44:43;;;;;;;5.07;4.67;;;11.90;1.00;;;;;;5085945;27;21299;-74
2021/05/09 02:47:27;;;;;;;5.37;4.93;;;11.90;1.00;;;;;;5081815;27;20450;-75
2021/05/09 02:49:53;;;;;;;6.00;5.60;;;11.80;1.00;;;;;;5084699;27;20454;-72
2021/05/09 02:52:19;;;;;;;5.20;4.80;;;11.80;1.00;;;;;;5078872;27;20467;-73
2021/05/09 02:54:46;;;;;;;5.53;5.13;;;11.80;1.00;;;;;;5083047;28;20462;-74
2021/05/09 02:57:12;;;;;;;5.77;5.10;;;11.80;1.00;;;;;;5081716;27;20464;-74
2021/05/09 02:59:38;;;;;;;5.00;4.60;;;11.80;1.00;;;;;;5083328;28;20580;-73
2021/05/09 03:02:04;;;;;;;5.03;4.53;;;11.80;1.00;;;;;;5081225;27;20475;-72
2021/05/09 03:04:31;;;;;;;4.33;4.00;;;11.90;1.00;;;;;;5085461;27;20466;-73
2021/05/09 03:06:57;;;;;;;5.50;5.10;;;11.80;1.00;;;;;;5084218;27;21103;-74
2021/05/09 03:09:24;;;;;;;5.20;4.80;;;11.80;1.00;;;;;;5077124;27;22222;-73
2021/05/09 03:11:50;;;;;;;4.57;4.17;;;11.80;1.00;;;;;;5086400;27;23079;-73
2021/05/09 03:14:16;;;;;;;5.03;4.47;;;11.80;1.00;;;;;;5085036;27;20509;-75
2021/05/09 03:16:42;;;;;;;5.17;4.77;;;11.70;1.00;;;;;;5086190;27;20460;-75
2021/05/09 03:19:08;;;;;;;4.90;4.47;;;11.70;1.00;;;;;;5081680;27;21333;-75
2021/05/09 03:21:35;;;;;;;4.80;4.40;;;11.70;1.00;;;;;;5076859;27;21300;-73
2021/05/09 03:24:02;;;;;;;5.20;4.50;;;11.70;1.00;;;;;;5082271;27;20430;-76
2021/05/09 03:26:28;;;;;;;5.33;4.90;;;11.60;1.00;;;;;;5084469;27;20461;-74
2021/05/09 03:28:54;;;;;;;4.78;4.38;;;11.50;1.00;;;;;;5062302;28;22443;-75
2021/05/09 03:31:20;;;;;;;6.70;5.33;;;11.50;1.00;;;;;;5083969;27;20230;-75
2021/05/09 03:33:46;;;;;;;4.97;4.57;;;11.40;1.00;;;;;;5077280;27;20531;-76
2021/05/09 03:36:12;;;;;;;4.93;4.53;;;11.40;1.00;;;;;;5086954;27;20836;-75
2021/05/09 03:38:39;;;;;;;5.80;5.30;;;11.40;1.00;;;;;;5080694;27;20441;-74
2021/05/09 03:41:05;;;;;;;4.70;4.20;;;11.40;1.00;;;;;;5084471;27;20232;-75
2021/05/09 03:43:32;;;;;;;5.07;4.57;;;11.40;1.00;;;;;;5080484;27;20451;-75
2021/05/09 03:45:58;;;;;;;5.68;4.80;;;11.30;1.00;;;;;;5082221;27;20455;-73
2021/05/09 03:48:24;;;;;;;5.90;5.40;;;11.30;1.00;;;;;;5085173;27;20231;-74
2021/05/09 03:50:51;;;;;;;5.10;4.80;;;11.30;1.00;;;;;;5064851;28;20537;-73
2021/05/09 03:53:17;;;;;;;5.07;4.67;;;11.30;1.00;;;;;;5083024;28;20238;-75
2021/05/09 03:55:44;;;;;;;5.17;4.77;;;11.30;1.00;;;;;;5080659;27;20521;-75
2021/05/09 03:58:10;;;;;;;5.70;5.20;;;11.40;1.00;;;;;;5084925;28;20446;-74
2021/05/09 04:00:36;;;;;;;5.28;4.88;;;11.40;1.00;;;;;;5082838;27;20215;-74
2021/05/09 04:03:02;;;;;;;4.70;4.30;;;11.30;1.00;;;;;;5086305;28;20243;-75
2021/05/09 04:05:28;;;;;;;5.20;4.70;;;11.30;1.00;;;;;;5082334;27;20233;-73
2021/05/09 04:07:55;;;;;;;5.10;4.70;;;11.30;1.00;;;;;;5080064;27;20484;-74
2021/05/09 04:10:21;;;;;;;4.90;4.50;;;11.30;1.00;;;;;;5083214;27;20215;-73
2021/05/09 04:12:48;;;;;;;5.00;4.60;;;11.30;1.00;;;;;;5088279;27;20232;-73
2021/05/09 04:15:15;;;;;;;5.38;4.90;;;11.20;1.00;;;;;;5082286;27;20239;-74
2021/05/09 04:17:41;;;;;;;7.15;4.57;;;11.20;1.00;;;;;;5082589;27;20220;-73
2021/05/09 04:20:08;;;;;;;10.13;4.63;;;11.20;1.00;;;;;;5078851;27;20662;-72
2021/05/09 04:22:34;;;;;;;4.80;4.50;;;11.10;1.00;;;;;;5081466;27;20453;-74
2021/05/09 04:25:00;;;;;;;4.72;4.32;;;11.10;1.00;;;;;;5082001;27;20742;-74
2021/05/09 04:27:26;;;;;;;6.13;4.70;;;11.10;1.00;;;;;;5078754;27;20342;-75
2021/05/09 04:29:53;;;;;;;4.72;4.32;;;11.10;1.00;;;;;;5082557;28;20228;-75
2021/05/09 04:32:20;;;;;;;6.20;5.03;;;11.10;1.00;;;;;;5064305;28;20236;-73
2021/05/09 04:34:46;;;;;;;6.75;4.97;;;11.10;1.00;;;;;;5080085;27;20235;-74
2021/05/09 04:37:13;;;;;;;4.90;4.50;;;11.10;1.00;;;;;;5077636;27;20215;-74
2021/05/09 04:39:39;;;;;;;5.80;4.55;;;11.10;1.00;;;;;;5088698;28;20247;-72
2021/05/09 04:42:05;;;;;;;4.95;4.55;;;11.10;1.00;;;;;;5097228;27;20223;-73
2021/05/09 04:44:31;;;;;;;5.80;4.68;;;11.10;1.00;;;;;;5086820;28;20219;-73
2021/05/09 04:46:58;;;;;;;4.55;4.15;;;11.20;1.00;;;;;;5076620;27;21014;-75
2021/05/09 04:49:24;;;;;;;4.80;4.40;;;11.20;1.00;;;;;;5086080;28;20224;-74
2021/05/09 04:51:51;;;;;;;5.47;4.97;;;11.20;1.00;;;;;;5077704;27;20231;-72
2021/05/09 04:54:17;;;;;;;4.90;4.40;;;11.30;1.00;;;;;;5079789;27;21057;-74
2021/05/09 04:56:43;;;;;;;4.97;4.57;;;11.30;1.00;;;;;;5078478;27;21039;-75
2021/05/09 04:59:09;;;;;;;4.67;4.37;;;11.40;1.00;;;;;;5078896;27;20219;-74
2021/05/09 05:01:35;;;;;;;5.17;4.77;;;11.50;1.00;;;;;;5077733;27;20446;-75
2021/05/09 05:04:02;;;;;;;5.40;4.87;;;11.60;1.00;;;;;;5079344;27;20465;-74
2021/05/09 05:06:28;;;;;;;7.07;4.60;;;11.70;1.00;;;;;;5076682;27;21296;-74
2021/05/09 05:08:54;;;;;;;5.10;4.53;;;11.80;1.00;;;;;;5077966;27;20219;-72
2021/05/09 05:11:20;;;;;;;5.50;5.10;;;11.80;1.00;;;;;;5079520;27;20950;-72
2021/05/09 05:13:47;;;;;;;5.60;4.40;;;12.00;1.00;;;;;;5078614;27;20610;-73
2021/05/09 05:16:15;;;;;;;4.37;4.00;;;12.00;1.00;;;;;;5082891;27;20462;-75
2021/05/09 05:18:41;;;;;;;4.97;4.47;;;12.20;1.00;;;;;;5077679;27;20449;-73
2021/05/09 05:21:08;;;;;;;4.60;4.20;;;12.20;1.00;;;;;;5081278;27;20518;-75
2021/05/09 05:23:36;;;;;;;5.20;4.70;;;12.30;1.00;;;;;;5082131;27;20474;-75
2021/05/09 05:26:03;;;;;;;4.13;3.83;;;12.50;1.00;;;;;;5082733;27;20555;-74
2021/05/09 05:28:29;;;;;;;5.80;4.43;;;12.60;1.00;;;;;;5078510;27;20437;-74
2021/05/09 05:30:55;;;;;;;4.43;4.13;;;12.80;1.00;;;;;;5082031;27;20454;-74
2021/05/09 05:33:26;;;;;;;4.47;4.17;;;12.90;1.00;;;;;;5078244;27;20473;-73
2021/05/09 05:35:52;;;;;;;4.60;4.17;;;13.00;1.00;;;;;;5083191;27;20688;-75
2021/05/09 05:38:19;;;;;;;4.73;4.20;;;13.20;1.00;;;;;;5078086;27;20530;-74
2021/05/09 05:40:49;;;;;;;4.37;4.00;;;13.30;1.00;;;;;;5077393;28;21067;-74
2021/05/09 05:43:15;;;;;;;4.13;3.73;;;13.30;1.00;;;;;;5077364;27;21013;-75
2021/05/09 05:45:41;;;;;;;4.33;4.03;;;13.50;1.00;;;;;;5079573;27;20448;-74
2021/05/09 05:48:08;;;;;;;4.30;4.00;;;13.70;1.00;;;;;;5082222;27;20554;-73
2021/05/09 05:50:34;;;;;;;4.13;3.83;;;13.80;1.00;;;;;;5084920;27;20544;-74
2021/05/09 05:53:00;;;;;;;4.10;3.70;;;13.90;1.00;;;;;;5085303;27;20478;-74
2021/05/09 05:55:27;;;;;;;4.60;4.20;;;14.20;1.00;;;;;;5084414;27;20511;-72
2021/05/09 05:57:53;;;;;;;4.60;3.90;;;14.40;1.00;;;;;;5085406;27;20462;-74
2021/05/09 06:00:20;;;;;;;5.57;4.70;;;14.50;1.00;;;;;;5084418;27;20464;-74
2021/05/09 06:02:46;;;;;;;4.20;3.90;;;14.60;1.00;;;;;;5086073;27;21643;-73
2021/05/09 06:05:13;;;;;;;4.30;4.00;;;14.60;1.00;;;;;;5081409;27;20436;-72
2021/05/09 06:07:39;;;;;;;6.73;3.60;;;14.60;1.00;;;;;;5090036;27;20926;-75
2021/05/09 06:10:06;;;;;;;4.33;3.93;;;14.60;1.00;;;;;;5090312;27;20463;-76
2021/05/09 06:12:33;;;;;;;4.40;4.00;;;14.60;1.00;;;;;;5090253;27;20449;-73
2021/05/09 06:14:59;;;;;;;4.30;3.90;;;14.70;1.00;;;;;;5089042;27;20469;-73
2021/05/09 06:17:25;;;;;;;3.77;3.53;;;14.80;1.00;;;;;;5086665;27;20886;-72
2021/05/09 06:19:51;;;;;;;3.90;3.60;;;14.80;1.00;;;;;;5085636;27;21755;-73
2021/05/09 06:22:18;;;;;;;4.50;4.10;;;14.90;1.00;;;;;;5086357;27;20469;-75
2021/05/09 06:24:44;;;;;;;4.07;3.73;;;14.90;1.00;;;;;;5083422;27;20564;-74
2021/05/09 06:27:10;;;;;;;4.40;4.10;;;15.00;1.00;;;;;;5085768;27;20488;-75
2021/05/09 06:29:37;;;;;;;3.80;3.50;;;15.20;1.00;;;;;;5090894;28;20446;-76
2021/05/09 06:32:04;;;;;;;3.33;3.10;;;15.40;1.00;;;;;;5081218;27;20512;-76
2021/05/09 06:34:30;;;;;;;4.20;3.80;;;15.30;1.00;;;;;;5086876;28;20552;-76
2021/05/09 06:36:56;;;;;;;3.37;3.07;;;15.40;1.00;;;;;;5077918;27;20454;-73
2021/05/09 06:39:25;;;;;;;3.63;3.40;;;15.40;1.00;;;;;;5081664;27;20767;-73
2021/05/09 06:41:52;;;;;;;4.37;3.60;;;15.50;1.00;;;;;;5083068;27;20451;-73
2021/05/09 06:44:18;;;;;;;3.83;3.43;;;15.50;1.00;;;;;;5085925;27;20450;-73
2021/05/09 06:46:46;;;;;;;3.87;3.57;;;15.70;1.00;;;;;;5086820;27;20454;-75
2021/05/09 06:49:14;;;;;;;3.60;3.30;;;15.80;1.00;;;;;;5086268;27;20526;-75
2021/05/09 06:51:40;;;;;;;3.60;3.30;;;15.90;1.00;;;;;;5083748;27;20441;-74
2021/05/09 06:54:06;;;;;;;3.47;3.17;;;15.90;1.00;;;;;;5089038;27;20450;-73
2021/05/09 06:56:32;;;;;;;3.10;2.90;;;15.90;1.00;;;;;;5085320;27;20453;-74
2021/05/09 06:58:58;;;;;;;3.10;2.90;;;16.00;1.00;;;;;;5086092;27;21093;-76
2021/05/09 07:01:25;;;;;;;4.00;3.70;;;16.00;1.00;;;;;;5081622;27;20485;-73
2021/05/09 07:03:51;;;;;;;3.23;3.03;;;16.00;1.00;;;;;;5083875;27;20446;-74
2021/05/09 07:06:18;;;;;;;4.13;3.73;;;16.10;1.00;;;;;;5077210;27;20461;-73
2021/05/09 07:08:44;;;;;;;3.27;2.83;;;16.20;1.00;;;;;;5080059;27;20470;-75
2021/05/09 07:11:10;;;;;;;3.30;3.00;;;16.20;1.00;;;;;;5080934;28;20471;-73
2021/05/09 07:13:36;;;;;;;3.17;2.60;;;16.30;1.00;;;;;;5077235;27;22244;-75
2021/05/09 07:16:02;;;;;;;3.23;2.97;;;16.30;1.00;;;;;;5063412;28;20463;-73
2021/05/09 07:18:30;;;;;;;3.43;3.20;;;16.40;1.00;;;;;;5080127;27;20442;-74
2021/05/09 07:21:00;;;;;;;2.83;2.60;;;16.60;1.00;;;;;;5090495;27;20487;-74
2021/05/09 07:23:27;;;;;;;3.20;2.90;;;16.80;1.00;;;;;;5089699;27;20487;-73
2021/05/09 07:25:54;;;;;;;3.53;2.90;;;16.90;1.00;;;;;;5089704;28;21054;-74
2021/05/09 07:28:21;;;;;;;3.87;2.70;;;17.10;1.00;;;;;;5076918;27;20414;-73
2021/05/09 07:30:48;;;;;;;3.20;3.00;;;17.10;1.00;;;;;;5080872;27;20521;-73
2021/05/09 07:33:15;;;;;;;3.60;3.30;;;17.20;1.00;;;;;;5078582;27;20450;-74
2021/05/09 07:35:42;;;;;;;3.20;2.63;;;17.20;1.00;;;;;;5075957;27;21411;-72
2021/05/09 07:38:10;;;;;;;3.60;2.90;;;17.20;1.00;;;;;;5078150;27;20463;-75
2021/05/09 07:40:37;;;;;;;4.17;2.77;;;17.40;1.00;;;;;;5075971;27;21044;-73
2021/05/09 07:43:03;;;;;;;2.83;2.53;;;17.50;1.00;;;;;;5075158;27;20443;-74
2021/05/09 07:45:30;;;;;;;2.63;2.43;;;17.60;1.00;;;;;;5075068;27;20471;-74
2021/05/09 07:47:56;;;;;;;2.97;2.33;;;17.70;1.00;;;;;;5079509;27;22300;-72
2021/05/09 07:50:25;;;;;;;2.47;2.27;;;17.80;1.00;;;;;;5083595;27;20460;-72
2021/05/09 07:52:52;;;;;;;4.60;2.57;;;18.00;1.00;;;;;;5080294;27;21586;-75
2021/05/09 07:55:19;;;;;;;2.83;2.53;;;18.10;1.00;;;;;;5075717;27;20459;-75
2021/05/09 07:57:45;;;;;;;1.90;1.80;;;18.30;1.00;;;;;;5084908;27;20484;-75
2021/05/09 08:00:14;;;;;;;2.53;2.30;;;18.50;1.00;;;;;;5078538;27;21254;-75
2021/05/09 08:02:41;;;;;;;2.43;2.23;;;18.50;1.00;;;;;;5080815;27;20915;-73
2021/05/09 08:05:09;;;;;;;2.47;2.27;;;18.70;1.00;;;;;;5078752;27;20450;-73
2021/05/09 08:07:35;;;;;;;2.40;2.20;;;19.00;1.00;;;;;;5081492;27;20452;-74
2021/05/09 08:10:01;;;;;;;2.20;2.00;;;19.00;1.00;;;;;;5072963;27;20548;-74
2021/05/09 08:12:28;;;;;;;2.23;2.03;;;19.00;1.00;;;;;;5077019;27;21775;-74
2021/05/09 08:14:54;;;;;;;2.47;2.07;;;19.00;1.00;;;;;;5083334;27;22003;-74
2021/05/09 08:17:20;;;;;;;3.03;2.73;;;19.20;1.00;;;;;;5079921;27;20450;-74
2021/05/09 08:19:46;;;;;;;2.87;2.57;;;19.30;1.00;;;;;;5075198;27;20472;-74
2021/05/09 08:22:12;;;;;;;2.50;2.23;;;19.40;1.00;;;;;;5080311;27;20441;-74
2021/05/09 08:24:38;;;;;;;2.80;2.43;;;19.50;1.00;;;;;;5077114;27;20631;-74
2021/05/09 08:27:06;;;;;;;2.80;2.30;;;19.70;1.00;;;;;;5073236;27;20465;-75
2021/05/09 08:29:33;;;;;;;2.67;2.47;;;19.50;1.00;;;;;;5083745;27;20461;-74
2021/05/09 08:32:00;;;;;;;2.27;2.00;;;19.60;1.00;;;;;;5085919;27;20464;-75
2021/05/09 08:34:28;;;;;;;3.23;2.23;;;19.80;1.00;;;;;;5079952;27;20458;-76
2021/05/09 08:36:54;;;;;;;2.27;1.93;;;19.70;1.00;;;;;;5074838;27;20537;-76
2021/05/09 08:39:20;;;;;;;3.77;2.17;;;19.90;1.00;;;;;;5077172;27;21052;-75
2021/05/09 08:41:48;;;;;;;2.87;2.07;;;19.90;1.00;;;;;;5075771;27;20584;-76
2021/05/09 08:44:14;;;;;;;2.27;2.07;;;20.10;1.00;;;;;;5081955;27;20457;-74
2021/05/09 08:46:44;;;;;;;2.27;2.17;;;20.30;1.00;;;;;;5075628;27;20465;-75
2021/05/09 08:49:12;;;;;;;3.30;1.93;;;20.30;1.00;;;;;;5090543;27;20500;-75
2021/05/09 08:51:38;;;;;;;2.17;1.97;;;20.30;1.00;;;;;;5081848;27;20461;-73
2021/05/09 08:54:05;;;;;;;1.67;1.57;;;20.30;1.00;;;;;;5090824;27;22435;-73
2021/05/09 08:56:32;;;;;;;2.50;2.23;;;20.40;1.00;;;;;;5090103;27;20991;-73
2021/05/09 08:58:58;;;;;;;2.80;2.07;;;20.60;1.00;;;;;;5073801;28;20523;-75
2021/05/09 09:01:28;;;;;;;3.07;1.90;;;20.80;1.00;;;;;;5088265;27;20450;-74
2021/05/09 09:03:56;;;;;;;3.43;2.07;;;20.90;1.00;;;;;;5088165;27;20910;-75
2021/05/09 09:06:40;;;;;;;2.20;2.00;;;21.00;1.00;;;;;;5088555;27;20504;-75
2021/05/09 09:09:07;;;;;;;3.87;1.97;;;21.20;1.00;;;;;;5084282;27;20458;-75
2021/05/09 09:11:33;;;;;;;4.10;1.40;;;21.30;1.00;;;;;;5085767;27;20584;-75
2021/05/09 09:14:10;;;;;;;3.67;2.27;;;21.50;1.00;;;;;;5086285;27;20508;-75
2021/05/09 09:16:37;;;;;;;2.23;2.00;;;21.80;1.00;;;;;;5088562;27;20438;-74
2021/05/09 09:19:08;;;;;;;2.70;1.53;;;21.90;1.00;;;;;;5089111;27;21352;-74
2021/05/09 09:21:35;;;;;;;1.70;1.60;;;22.20;1.00;;;;;;5083265;27;21757;-74
2021/05/09 09:24:05;;;;;;;1.73;1.63;;;22.30;1.00;;;;;;5095802;27;20457;-72
2021/05/09 09:26:34;;;;;;;1.97;1.77;;;22.50;1.00;;;;;;5095040;27;20414;-75
2021/05/09 09:29:02;;;;;;;2.10;1.80;;;23.30;1.00;;;;;;5098872;27;20458;-76
2021/05/09 09:31:35;;;;;;;1.57;1.47;;;24.40;1.00;;;;;;5092557;27;20470;-73
2021/05/09 09:34:02;;;;;;;1.60;1.50;;;25.90;1.00;;;;;;5095658;27;20433;-75
2021/05/09 09:36:29;;;;;;;2.00;1.43;;;27.00;1.00;;;;;;5096638;27;20444;-74
2021/05/09 09:38:55;;;;;;;2.33;1.00;;;27.60;1.00;;;;;;5092776;27;20635;-75
2021/05/09 09:41:22;;;;;;;1.37;1.27;;;28.30;1.00;;;;;;5094014;27;20487;-74
2021/05/09 09:44:16;;;;;;;1.47;1.30;;;29.20;1.00;;;;;;5085706;27;20465;-76
2021/05/09 09:46:49;;;;;;;1.40;1.30;;;29.90;1.00;;;;;;5039435;28;21257;-76
2021/05/09 09:49:21;;;;;;;2.70;1.37;;;30.00;1.00;;;;;;5089733;27;20460;-72
2021/05/09 09:51:50;;;;;;;4.87;1.70;;;29.40;1.00;;;;;;5094829;27;20460;-73
2021/05/09 09:54:42;;;;;;;1.63;1.17;;;29.50;1.00;;;;;;5070980;27;20522;-74
2021/05/09 09:57:11;;;;;;;1.70;1.60;;;29.60;1.00;;;;;;5096624;27;21689;-74
2021/05/09 09:59:38;;;;;;;1.40;1.00;;;29.30;1.00;;;;;;5091652;27;20451;-75
2021/05/09 10:02:06;;;;;;;2.03;1.10;;;29.80;1.00;;;;;;5089955;28;20501;-74
2021/05/09 10:04:33;;;;;;;2.23;1.30;;;29.70;1.00;;;;;;5092095;27;20416;-74
2021/05/09 10:07:05;;;;;;;1.60;1.17;;;30.20;1.00;;;;;;5091574;27;20469;-74
2021/05/09 10:09:32;;;;;;;1.37;1.20;;;31.00;1.00;;;;;;5092709;27;20491;-76
2021/05/09 10:11:58;;;;;;;3.27;1.67;;;31.90;1.00;;;;;;5090937;27;20753;-76
2021/05/09 10:14:24;;;;;;;2.37;1.27;;;32.20;1.00;;;;;;5088470;27;20450;-76
2021/05/09 10:16:51;;;;;;;1.43;1.00;;;31.80;1.00;;;;;;5092546;27;21272;-74
2021/05/09 10:19:23;;;;;;;1.97;1.20;;;32.30;1.00;;;;;;5085132;27;21402;-75
2021/05/09 10:21:49;;;;;;;1.40;0.90;;;31.90;1.00;;;;;;5089866;27;20427;-75
2021/05/09 10:24:18;;;;;;;1.73;1.10;;;31.40;1.00;;;;;;5068624;27;20447;-73
2021/05/09 10:26:52;;;;;;;1.47;1.37;;;31.80;1.00;;;;;;5087984;28;20460;-75
2021/05/09 10:29:58;;;;;;;1.53;1.10;;;32.20;1.00;;;;;;5084380;27;20957;-74
2021/05/09 10:32:50;;;;;;;2.10;1.90;;;32.50;1.00;;;;;;5092793;27;20648;-76
2021/05/09 10:35:35;;;;;;;2.50;1.10;;;33.60;1.00;;;;;;5085825;27;20451;-74
2021/05/09 10:38:09;;;;;;;1.53;1.43;;;33.50;1.00;;;;;;5087097;28;20817;-76
2021/05/09 10:40:43;;;;;;;1.73;1.10;;;33.10;1.00;;;;;;5088938;27;20520;-74
2021/05/09 10:43:37;;;;;;;1.63;1.20;;;32.10;1.00;;;;;;5090824;28;20508;-76
2021/05/09 10:46:04;;;;;;;1.90;1.13;;;32.20;1.00;;;;;;5090611;27;20531;-76
2021/05/09 10:48:34;;;;;;;1.30;1.10;;;32.20;1.00;;;;;;5090050;27;20550;-76
2021/05/09 10:51:28;;;;;;;1.53;1.20;;;33.20;1.00;;;;;;5087688;27;20561;-74
2021/05/09 10:54:21;;;;;;;1.60;1.20;;;32.50;1.00;;;;;;5091708;27;20477;-76
2021/05/09 10:56:50;;;;;;;1.40;1.30;;;32.70;1.00;;;;;;5091798;27;20438;-75
2021/05/09 10:59:17;;;;;;;2.53;1.60;;;33.30;1.00;;;;;;5091173;27;20460;-73
2021/05/09 11:01:43;;;;;;;2.00;1.10;;;33.10;1.00;;;;;;5097839;27;20532;-73
2021/05/09 11:04:10;;;;;;;4.90;1.30;;;32.90;1.00;;;;;;5092172;27;20504;-74
2021/05/09 11:06:50;;;;;;;2.67;1.30;;;33.00;1.00;;;;;;5088623;27;20463;-75
2021/05/09 11:09:33;;;;;;;1.63;1.37;;;34.20;1.00;;;;;;5091184;27;20615;-75
2021/05/09 11:12:07;;;;;;;2.83;1.37;;;35.10;1.00;;;;;;5084007;27;20450;-77
2021/05/09 11:14:34;;;;;;;1.83;1.10;;;35.40;1.00;;;;;;5094887;27;20452;-74
2021/05/09 11:17:19;;;;;;;2.63;1.80;;;35.40;1.00;;;;;;5085231;27;20476;-77
2021/05/09 11:19:50;;;;;;;1.23;1.10;;;35.50;1.00;;;;;;5089774;28;20433;-75
2021/05/09 11:22:21;;;;;;;1.60;0.90;;;35.30;1.00;;;;;;5084678;27;20607;-73
2021/05/09 11:25:00;;;;;;;2.60;1.17;;;34.50;1.00;;;;;;5090677;27;20993;-76
2021/05/09 11:27:29;;;;;;;1.60;1.10;;;35.20;1.00;;;;;;5085084;27;20519;-74
2021/05/09 11:29:56;;;;;;;1.37;1.00;;;36.00;1.00;;;;;;5088632;28;20520;-75
2021/05/09 11:32:24;;;;;;;1.20;1.10;;;36.90;1.00;;;;;;5065266;28;20889;-74
2021/05/09 11:35:02;;;;;;;1.43;1.20;;;36.80;1.00;;;;;;5086929;27;20477;-72
2021/05/09 11:37:39;;;;;;;1.57;0.93;;;36.80;1.00;;;;;;5084713;27;20551;-74
2021/05/09 11:40:09;;;;;;;1.50;1.13;;;36.40;1.00;;;;;;5085509;27;20453;-73
2021/05/09 11:42:37;;;;;;;2.53;1.50;;;36.80;1.00;;;;;;5083963;27;20458;-74
2021/05/09 11:45:04;;;;;;;1.40;1.27;;;36.90;1.00;;;;;;5084378;27;20459;-75
2021/05/09 11:47:32;;;;;;;1.53;1.43;;;35.50;1.00;;;;;;5082566;27;20448;-75
2021/05/09 11:50:00;;;;;;;1.70;1.53;;;35.30;1.00;;;;;;5086210;27;20463;-76
2021/05/09 11:52:28;;;;;;;1.50;1.20;;;35.80;1.00;;;;;;5081273;27;23338;-74
2021/05/09 11:54:57;;;;;;;1.43;1.33;;;36.50;1.00;;;;;;5083525;27;20996;-74
2021/05/09 11:57:24;;;;;;;1.77;1.40;;;36.50;1.00;;;;;;5083076;27;20915;-75
2021/05/09 11:59:52;;;;;;;1.40;1.30;;;37.50;1.00;;;;;;5083380;27;20442;-73
2021/05/09 12:02:21;;;;;;;1.47;1.37;;;37.30;1.00;;;;;;5074374;27;21375;-73
2021/05/09 12:04:49;;;;;;;2.03;1.60;;;37.50;1.00;;;;;;5088349;27;20442;-74
2021/05/09 12:07:17;;;;;;;1.17;1.07;;;37.30;1.00;;;;;;5085487;27;20607;-73
2021/05/09 12:09:49;;;;;;;1.10;1.00;;;37.60;1.00;;;;;;5081667;27;20473;-74
2021/05/09 12:12:18;;;;;;;1.30;1.20;;;37.70;1.00;;;;;;5091659;27;20463;-74
2021/05/09 12:14:45;;;;;;;1.50;1.30;;;37.50;1.00;;;;;;5080692;27;21563;-75
2021/05/09 12:17:22;;;;;;;1.70;1.40;;;38.10;1.00;;;;;;5091315;27;20452;-73
2021/05/09 12:19:49;;;;;;;1.40;1.30;;;38.40;1.00;;;;;;5089049;27;20944;-75
2021/05/09 12:22:15;;;;;;;1.57;1.47;;;38.40;1.00;;;;;;5086139;27;20886;-74
2021/05/09 12:24:53;;;;;;;1.50;1.40;;;37.70;1.00;;;;;;5082516;27;20447;-74
2021/05/09 12:27:20;;;;;;;1.83;1.07;;;37.80;1.00;;;;;;5083480;27;20461;-75
2021/05/09 12:29:48;;;;;;;1.47;1.30;;;38.20;1.00;;;;;;5062686;28;20447;-76
2021/05/09 12:32:24;;;;;;;3.23;1.50;;;37.90;1.00;;;;;;5093491;27;20619;-73
2021/05/09 12:35:02;;;;;;;1.80;1.70;;;37.70;1.00;;;;;;5090209;27;20502;-73
2021/05/09 12:37:30;;;;;;;1.17;0.97;;;38.30;1.00;;;;;;5087147;27;20862;-75
2021/05/09 12:40:20;;;;;;;3.83;1.10;;;38.00;1.00;;;;;;5086929;27;20473;-74
2021/05/09 12:42:50;;;;;;;1.70;1.37;;;37.30;1.00;;;;;;5086793;27;20453;-75
2021/05/09 12:45:18;;;;;;;1.30;1.13;;;36.70;1.00;;;;;;5083888;27;20466;-74
2021/05/09 12:48:15;;;;;;;1.37;1.13;;;37.10;1.00;;;;;;5090022;27;20436;-75
2021/05/09 12:50:50;;;;;;;2.00;1.60;;;37.40;1.00;;;;;;5092543;27;20446;-73
2021/05/09 12:53:17;;;;;;;1.30;1.20;;;37.60;1.00;;;;;;5093563;27;20975;-74
2021/05/09 12:55:44;;;;;;;2.87;1.37;;;37.80;1.00;;;;;;5085408;27;20978;-75
2021/05/09 12:58:12;;;;;;;1.87;1.53;;;38.70;1.00;;;;;;5086204;27;20480;-75
2021/05/09 13:00:39;;;;;;;1.40;1.30;;;38.90;1.00;;;;;;5089552;27;22473;-74
2021/05/09 13:03:06;;;;;;;1.30;1.20;;;38.60;1.00;;;;;;5090356;27;20976;-74
2021/05/09 13:05:33;;;;;;;1.50;1.33;;;38.60;1.00;;;;;;5092262;27;20449;-75